sensor_id;sensor_type;location;lat;lon;timestamp;pressure;altitude;pressure_sealevel;temperature;humidity
31011;BME280;26395;53.412;19.598;2023-08-31T00:14:21;99303.91;;;20.37;100.00
31011;BME280;26395;53.412;19.598;2023-08-31T00:29:25;99303.27;;;20.58;100.00
31011;BME280;26395;53.412;19.598;2023-08-31T00:44:29;99308.66;;;20.77;100.00
31011;BME280;26395;53.412;19.598;2023-08-31T00:59:32;99304.02;;;20.76;100.00
31011;BME280;26395;53.412;19.598;2023-08-31T01:14:44;99307.68;;;20.54;100.00
31011;BME280;26395;53.412;19.598;2023-08-31T01:29:49;99317.91;;;20.36;100.00
31011;BME280;26395;53.412;19.598;2023-08-31T01:44:55;99324.70;;;20.26;100.00
31011;BME280;26395;53.412;19.598;2023-08-31T01:59:59;99328.55;;;20.03;100.00
31011;BME280;26395;53.412;19.598;2023-08-31T02:15:06;99337.36;;;19.42;100.00
31011;BME280;26395;53.412;19.598;2023-08-31T02:30:09;99354.59;;;19.01;100.00
31011;BME280;26395;53.412;19.598;2023-08-31T02:45:13;99358.88;;;19.02;100.00
31011;BME280;26395;53.412;19.598;2023-08-31T03:00:16;99367.58;;;18.63;100.00
31011;BME280;26395;53.412;19.598;2023-08-31T03:15:24;99376.05;;;18.13;100.00
31011;BME280;26395;53.412;19.598;2023-08-31T03:30:28;99385.41;;;18.27;100.00
31011;BME280;26395;53.412;19.598;2023-08-31T03:45:32;99389.38;;;18.24;100.00
31011;BME280;26395;53.412;19.598;2023-08-31T04:00:37;99406.98;;;18.16;100.00
31011;BME280;26395;53.412;19.598;2023-08-31T04:15:41;99417.37;;;18.07;100.00
31011;BME280;26395;53.412;19.598;2023-08-31T04:30:44;99423.20;;;18.15;100.00
31011;BME280;26395;53.412;19.598;2023-08-31T04:45:48;99430.80;;;18.20;100.00
31011;BME280;26395;53.412;19.598;2023-08-31T05:00:52;99444.60;;;17.98;100.00
31011;BME280;26395;53.412;19.598;2023-08-31T05:15:56;99461.76;;;18.04;100.00
31011;BME280;26395;53.412;19.598;2023-08-31T05:31:01;99468.01;;;18.48;100.00
31011;BME280;26395;53.412;19.598;2023-08-31T05:46:07;99478.45;;;18.70;100.00
31011;BME280;26395;53.412;19.598;2023-08-31T06:01:11;99490.63;;;18.76;100.00
31011;BME280;26395;53.412;19.598;2023-08-31T06:16:14;99501.81;;;18.87;100.00
31011;BME280;26395;53.412;19.598;2023-08-31T06:31:18;99511.51;;;19.03;100.00
31011;BME280;26395;53.412;19.598;2023-08-31T06:46:22;99513.14;;;19.12;100.00
31011;BME280;26395;53.412;19.598;2023-08-31T07:01:27;99518.66;;;19.29;100.00
31011;BME280;26395;53.412;19.598;2023-08-31T07:16:31;99523.95;;;19.60;100.00
31011;BME280;26395;53.412;19.598;2023-08-31T07:31:35;99523.67;;;20.65;100.00
31011;BME280;26395;53.412;19.598;2023-08-31T07:46:39;99528.02;;;22.38;100.00
31011;BME280;26395;53.412;19.598;2023-08-31T08:01:43;99557.88;;;22.61;98.98
31011;BME280;26395;53.412;19.598;2023-08-31T08:16:46;99569.73;;;22.70;98.19
31011;BME280;26395;53.412;19.598;2023-08-31T08:31:50;99565.84;;;23.32;93.73
31011;BME280;26395;53.412;19.598;2023-08-31T08:46:54;99572.88;;;23.49;88.99
31011;BME280;26395;53.412;19.598;2023-08-31T09:01:57;99576.61;;;24.63;84.51
31011;BME280;26395;53.412;19.598;2023-08-31T09:17:01;99590.94;;;24.05;82.27
31011;BME280;26395;53.412;19.598;2023-08-31T09:32:05;99593.42;;;24.16;79.72
31011;BME280;26395;53.412;19.598;2023-08-31T09:47:09;99602.10;;;24.50;79.68
31011;BME280;26395;53.412;19.598;2023-08-31T10:02:14;99618.20;;;24.06;80.95
31011;BME280;26395;53.412;19.598;2023-08-31T10:17:20;99622.98;;;23.53;83.30
31011;BME280;26395;53.412;19.598;2023-08-31T10:32:27;99622.75;;;24.64;80.75
31011;BME280;26395;53.412;19.598;2023-08-31T10:47:40;99623.14;;;24.74;75.53
31011;BME280;26395;53.412;19.598;2023-08-31T11:02:48;99615.80;;;24.77;73.51
31011;BME280;26395;53.412;19.598;2023-08-31T11:17:53;99594.20;;;25.35;72.04
31011;BME280;26395;53.412;19.598;2023-08-31T11:33:10;99579.09;;;24.92;72.30
31011;BME280;26395;53.412;19.598;2023-08-31T11:48:18;99595.02;;;25.40;69.90
31011;BME280;26395;53.412;19.598;2023-08-31T12:03:24;99576.58;;;25.63;69.72
31011;BME280;26395;53.412;19.598;2023-08-31T12:18:46;99570.91;;;24.77;71.10
31011;BME280;26395;53.412;19.598;2023-08-31T12:33:50;99578.95;;;24.08;76.61
31011;BME280;26395;53.412;19.598;2023-08-31T12:48:53;99606.77;;;24.15;77.93
31011;BME280;26395;53.412;19.598;2023-08-31T13:03:57;99598.38;;;24.52;74.99
31011;BME280;26395;53.412;19.598;2023-08-31T13:19:00;99644.19;;;22.80;74.94
31011;BME280;26395;53.412;19.598;2023-08-31T13:34:03;99657.23;;;21.54;83.52
31011;BME280;26395;53.412;19.598;2023-08-31T13:49:09;99652.52;;;22.35;85.66
31011;BME280;26395;53.412;19.598;2023-08-31T14:04:12;99653.11;;;22.56;87.23
31011;BME280;26395;53.412;19.598;2023-08-31T14:19:16;99677.75;;;22.58;84.94
31011;BME280;26395;53.412;19.598;2023-08-31T14:34:19;99700.30;;;22.80;84.07
31011;BME280;26395;53.412;19.598;2023-08-31T14:49:23;99725.11;;;23.25;82.07
31011;BME280;26395;53.412;19.598;2023-08-31T15:04:28;99727.05;;;22.47;82.50
31011;BME280;26395;53.412;19.598;2023-08-31T15:19:31;99725.20;;;21.82;84.30
31011;BME280;26395;53.412;19.598;2023-08-31T15:34:35;99725.95;;;22.01;84.38
31011;BME280;26395;53.412;19.598;2023-08-31T15:49:39;99734.79;;;22.36;82.04
31011;BME280;26395;53.412;19.598;2023-08-31T16:04:44;99745.52;;;22.36;80.57
31011;BME280;26395;53.412;19.598;2023-08-31T16:19:50;99747.24;;;22.69;77.03
31011;BME280;26395;53.412;19.598;2023-08-31T16:34:53;99752.89;;;21.82;76.31
31011;BME280;26395;53.412;19.598;2023-08-31T16:49:58;99764.67;;;21.11;78.57
31011;BME280;26395;53.412;19.598;2023-08-31T17:05:02;99765.11;;;20.97;79.19
31011;BME280;26395;53.412;19.598;2023-08-31T17:20:06;99772.55;;;20.96;80.32
31011;BME280;26395;53.412;19.598;2023-08-31T17:45:29;99785.42;;;20.26;81.28
31011;BME280;26395;53.412;19.598;2023-08-31T18:00:32;99810.84;;;19.62;75.71
31011;BME280;26395;53.412;19.598;2023-08-31T18:15:37;99842.70;;;19.03;75.21
31011;BME280;26395;53.412;19.598;2023-08-31T18:30:58;99863.31;;;18.68;76.47
31011;BME280;26395;53.412;19.598;2023-08-31T18:46:06;99869.00;;;18.34;77.59
31011;BME280;26395;53.412;19.598;2023-08-31T19:01:10;99873.33;;;18.13;78.03
31011;BME280;26395;53.412;19.598;2023-08-31T19:16:15;99867.77;;;17.89;79.17
31011;BME280;26395;53.412;19.598;2023-08-31T19:31:20;99869.73;;;17.50;80.83
31011;BME280;26395;53.412;19.598;2023-08-31T19:46:24;99884.66;;;17.27;82.05
31011;BME280;26395;53.412;19.598;2023-08-31T20:01:28;99891.85;;;17.08;83.03
31011;BME280;26395;53.412;19.598;2023-08-31T20:16:33;99905.54;;;16.95;84.01
31011;BME280;26395;53.412;19.598;2023-08-31T20:31:36;99914.59;;;16.76;85.15
31011;BME280;26395;53.412;19.598;2023-08-31T20:46:40;99922.84;;;16.53;85.85
31011;BME280;26395;53.412;19.598;2023-08-31T21:01:44;99928.05;;;16.40;86.68
31011;BME280;26395;53.412;19.598;2023-08-31T21:16:47;99935.95;;;16.37;87.41
31011;BME280;26395;53.412;19.598;2023-08-31T21:31:51;99944.03;;;16.42;87.91
31011;BME280;26395;53.412;19.598;2023-08-31T21:46:54;99951.98;;;16.35;87.90
31011;BME280;26395;53.412;19.598;2023-08-31T22:01:58;99956.10;;;16.05;90.07
31011;BME280;26395;53.412;19.598;2023-08-31T22:17:01;99955.17;;;15.95;91.34
31011;BME280;26395;53.412;19.598;2023-08-31T22:32:05;99948.74;;;15.85;93.97
31011;BME280;26395;53.412;19.598;2023-08-31T22:47:09;99948.58;;;15.80;95.52
31011;BME280;26395;53.412;19.598;2023-08-31T23:02:12;99940.67;;;15.91;95.55
31011;BME280;26395;53.412;19.598;2023-08-31T23:17:15;99937.90;;;15.83;95.40
31011;BME280;26395;53.412;19.598;2023-08-31T23:32:19;99950.03;;;15.88;96.25
31011;BME280;26395;53.412;19.598;2023-08-31T23:47:22;99959.31;;;15.97;96.04
